createdAt,value
2022-11-22T00:01:30.342Z,7.50
2022-11-22T00:03:56.964Z,6.95
2022-11-22T00:06:23.616Z,6.45
2022-11-22T00:08:50.288Z,7.88
2022-11-22T00:11:16.936Z,7.55
2022-11-22T00:13:43.593Z,7.28
2022-11-22T00:16:10.342Z,7.45
2022-11-22T00:18:36.995Z,7.70
2022-11-22T00:21:08.215Z,7.18
2022-11-22T00:23:34.891Z,7.97
2022-11-22T00:26:01.508Z,8.15
2022-11-22T00:28:28.145Z,7.40
2022-11-22T00:30:54.794Z,7.78
2022-11-22T00:33:21.431Z,7.13
2022-11-22T00:35:48.180Z,7.78
2022-11-22T00:38:14.840Z,7.65
2022-11-22T00:40:41.466Z,7.43
2022-11-22T00:43:08.130Z,8.00
2022-11-22T00:45:34.794Z,7.43
2022-11-22T00:48:01.424Z,7.82
2022-11-22T00:50:28.084Z,8.88
2022-11-22T00:52:54.715Z,8.73
2022-11-22T00:55:21.378Z,8.43
2022-11-22T00:57:48.011Z,8.43
2022-11-22T01:00:14.910Z,8.65
2022-11-22T01:02:41.562Z,8.10
2022-11-22T01:05:08.538Z,8.20
2022-11-22T01:07:35.393Z,8.57
2022-11-22T01:10:02.143Z,8.50
2022-11-22T01:12:28.960Z,9.45
2022-11-22T01:14:55.751Z,9.05
2022-11-22T01:17:22.486Z,8.65
2022-11-22T01:19:49.206Z,8.60
2022-11-22T01:22:15.853Z,9.38
2022-11-22T01:24:42.494Z,9.48
2022-11-22T01:27:09.141Z,8.63
2022-11-22T01:29:35.776Z,8.40
2022-11-22T01:32:02.420Z,9.02
2022-11-22T01:34:29.128Z,8.20
2022-11-22T01:36:55.827Z,8.63
2022-11-22T01:39:22.497Z,9.02
2022-11-22T01:41:49.258Z,8.95
2022-11-22T01:44:25.619Z,8.52
2022-11-22T01:47:24.580Z,9.32
2022-11-22T01:49:54.854Z,8.93
2022-11-22T01:52:24.525Z,8.98
2022-11-22T01:54:59.802Z,8.25
2022-11-22T01:57:30.121Z,8.20
2022-11-22T02:00:00.769Z,8.65
2022-11-22T02:02:28.251Z,8.57
2022-11-22T02:04:55.618Z,9.05
2022-11-22T02:07:44.482Z,9.20
2022-11-22T02:10:11.684Z,9.30
2022-11-22T02:12:38.965Z,9.50
2022-11-22T02:15:07.251Z,9.95
2022-11-22T02:17:34.306Z,8.63
2022-11-22T02:20:00.951Z,9.10
2022-11-22T02:22:36.399Z,9.30
2022-11-22T02:25:33.564Z,8.68
2022-11-22T02:28:00.210Z,8.68
2022-11-22T02:30:26.888Z,8.63
2022-11-22T02:32:53.570Z,8.13
2022-11-22T02:35:22.838Z,8.95
2022-11-22T02:38:01.475Z,9.07
2022-11-22T02:40:29.818Z,7.90
2022-11-22T02:43:02.662Z,8.13
2022-11-22T02:45:29.441Z,8.75
2022-11-22T02:48:13.466Z,9.15
2022-11-22T02:50:40.336Z,8.10
2022-11-22T02:53:08.078Z,8.95
2022-11-22T02:55:35.363Z,9.02
2022-11-22T02:58:02.454Z,9.00
2022-11-22T03:00:29.116Z,8.63
2022-11-22T03:02:55.816Z,9.38
2022-11-22T03:05:22.471Z,8.63
2022-11-22T03:07:50.547Z,9.60
2022-11-22T03:10:17.483Z,8.82
2022-11-22T03:12:44.143Z,8.90
2022-11-22T03:15:11.212Z,7.75
2022-11-22T03:17:38.047Z,8.50
2022-11-22T03:20:05.315Z,9.68
2022-11-22T03:22:32.052Z,9.07
2022-11-22T03:24:58.687Z,9.20
2022-11-22T03:27:25.341Z,9.45
2022-11-22T03:29:51.982Z,7.82
2022-11-22T03:32:18.623Z,9.30
2022-11-22T03:34:45.266Z,8.73
2022-11-22T03:37:11.911Z,8.38
2022-11-22T03:39:38.580Z,8.52
2022-11-22T03:42:05.234Z,8.52
2022-11-22T03:44:31.851Z,8.20
2022-11-22T03:46:58.551Z,8.32
2022-11-22T03:49:25.215Z,8.45
2022-11-22T03:51:51.847Z,8.50
2022-11-22T03:54:18.560Z,9.60
2022-11-22T03:56:45.178Z,9.20
2022-11-22T03:59:11.833Z,9.48
2022-11-22T04:01:38.516Z,9.00
2022-11-22T04:04:05.380Z,9.80
2022-11-22T04:06:32.024Z,9.05
2022-11-22T04:08:58.793Z,10.27
2022-11-22T04:11:25.577Z,9.20
2022-11-22T04:14:10.917Z,9.65
2022-11-22T04:16:37.574Z,9.75
2022-11-22T04:19:04.197Z,9.95
2022-11-22T04:21:36.812Z,10.25
2022-11-22T04:24:24.938Z,9.98
2022-11-22T04:26:51.772Z,10.68
2022-11-22T04:29:18.677Z,11.38
2022-11-22T04:32:03.895Z,10.20
2022-11-22T04:34:30.786Z,10.35
2022-11-22T04:36:57.434Z,10.98
2022-11-22T04:39:24.123Z,11.75
2022-11-22T04:42:14.988Z,11.23
2022-11-22T04:44:42.402Z,12.82
2022-11-22T04:47:13.378Z,12.30
2022-11-22T04:49:40.058Z,12.13
2022-11-22T04:52:25.610Z,11.75
2022-11-22T04:54:52.260Z,12.45
2022-11-22T04:57:18.939Z,10.77
2022-11-22T04:59:45.594Z,11.02
2022-11-22T05:02:12.280Z,10.52
2022-11-22T05:04:38.976Z,11.20
2022-11-22T05:07:05.748Z,12.77
2022-11-22T05:09:32.539Z,12.45
2022-11-22T05:11:59.526Z,12.10
2022-11-22T05:14:26.155Z,12.00
2022-11-22T05:16:52.823Z,10.63
2022-11-22T05:19:19.482Z,11.05
2022-11-22T05:21:46.101Z,11.60
2022-11-22T05:24:12.824Z,10.82
2022-11-22T05:26:39.482Z,11.93
2022-11-22T05:29:08.220Z,29.50
2022-11-22T05:31:36.516Z,25.58
2022-11-22T05:34:03.993Z,19.92
2022-11-22T05:36:33.044Z,20.05
2022-11-22T05:39:00.091Z,11.07
2022-11-22T05:41:26.845Z,14.07
2022-11-22T05:43:57.161Z,12.00
2022-11-22T05:46:26.521Z,11.10
2022-11-22T05:51:30.540Z,11.73
2022-11-22T05:54:00.542Z,12.43
2022-11-22T05:56:27.247Z,13.32
2022-11-22T05:58:53.919Z,13.32
2022-11-22T06:01:22.631Z,12.02
2022-11-22T06:03:50.210Z,13.40
2022-11-22T06:06:17.145Z,13.82
2022-11-22T06:08:48.468Z,12.48
2022-11-22T06:11:16.722Z,13.52
2022-11-22T06:13:44.506Z,12.73
2022-11-22T06:16:11.365Z,15.57
2022-11-22T06:18:38.430Z,13.82
2022-11-22T06:21:07.291Z,13.57
2022-11-22T06:23:34.121Z,13.30
2022-11-22T06:26:02.985Z,13.93
2022-11-22T06:28:30.779Z,10.90
2022-11-22T06:31:17.959Z,16.90
2022-11-22T06:33:45.147Z,15.82
2022-11-22T06:36:22.720Z,10.15
2022-11-22T06:38:49.426Z,11.32
2022-11-22T06:41:18.259Z,11.15
2022-11-22T06:43:48.974Z,10.48
2022-11-22T06:46:20.518Z,11.48
2022-11-22T06:48:47.956Z,11.65
2022-11-22T06:51:19.198Z,10.90
2022-11-22T06:53:48.265Z,11.18
2022-11-22T06:56:21.076Z,10.48
2022-11-22T06:58:49.258Z,11.82
2022-11-22T07:01:26.496Z,10.48
2022-11-22T07:03:59.211Z,11.45
2022-11-22T07:06:31.249Z,11.55
2022-11-22T07:08:59.354Z,12.13
2022-11-22T07:11:28.127Z,10.63
2022-11-22T07:13:58.100Z,11.88
2022-11-22T07:16:27.034Z,10.75
2022-11-22T07:18:53.746Z,11.25
2022-11-22T07:21:24.744Z,13.55
2022-11-22T07:23:53.953Z,11.38
2022-11-22T07:28:48.691Z,11.35
2022-11-22T07:31:16.910Z,11.07
2022-11-22T07:33:44.404Z,10.13
2022-11-22T07:36:13.620Z,8.95
2022-11-22T07:41:07.427Z,9.60
2022-11-22T07:43:34.462Z,11.70
2022-11-22T07:46:06.514Z,9.55
2022-11-22T07:48:33.283Z,10.70
2022-11-22T07:51:07.197Z,11.50
2022-11-22T07:53:35.090Z,9.57
2022-11-22T07:56:05.383Z,10.45
2022-11-22T07:58:32.869Z,9.30
2022-11-22T08:01:07.880Z,10.45
2022-11-22T08:03:34.899Z,10.65
2022-11-22T08:06:02.558Z,9.88
2022-11-22T08:08:29.624Z,10.98
2022-11-22T08:10:56.479Z,11.98
2022-11-22T08:13:23.388Z,10.88
2022-11-22T08:15:53.312Z,11.35
2022-11-22T08:18:21.537Z,9.27
2022-11-22T08:20:48.147Z,9.57
2022-11-22T08:23:14.844Z,11.27
2022-11-22T08:25:41.512Z,10.48
2022-11-22T08:28:08.276Z,10.13
2022-11-22T08:30:34.975Z,10.10
2022-11-22T08:33:01.607Z,9.55
2022-11-22T08:35:28.281Z,9.60
2022-11-22T08:37:56.732Z,9.57
2022-11-22T08:40:23.398Z,9.63
2022-11-22T08:42:50.107Z,10.68
2022-11-22T08:45:16.898Z,10.95
2022-11-22T08:47:43.626Z,9.93
2022-11-22T08:50:10.368Z,8.23
2022-11-22T08:52:37.012Z,8.57
2022-11-22T08:55:03.812Z,9.63
2022-11-22T08:57:30.418Z,9.95
2022-11-22T08:59:57.088Z,9.30
2022-11-22T09:02:23.735Z,9.27
2022-11-22T09:04:50.346Z,10.57
2022-11-22T09:10:05.753Z,10.38
2022-11-22T09:12:32.725Z,8.95
2022-11-22T09:14:59.553Z,8.98
2022-11-22T09:17:26.229Z,8.80
2022-11-22T09:19:52.917Z,8.77
2022-11-22T09:22:21.796Z,9.07
2022-11-22T09:24:50.701Z,9.07
2022-11-22T09:27:17.362Z,9.57
2022-11-22T09:29:43.998Z,9.77
2022-11-22T09:32:10.770Z,8.63
2022-11-22T09:34:37.410Z,8.57
2022-11-22T09:37:04.155Z,8.68
2022-11-22T09:39:30.970Z,7.38
2022-11-22T09:42:20.860Z,7.90
2022-11-22T09:44:53.272Z,7.88
2022-11-22T09:48:09.865Z,6.97
2022-11-22T09:51:02.441Z,7.90
2022-11-22T09:53:45.014Z,7.25
2022-11-22T09:56:13.751Z,6.53
2022-11-22T09:58:47.982Z,7.57
2022-11-22T10:01:17.797Z,8.70
2022-11-22T10:03:53.551Z,6.93
2022-11-22T10:06:30.320Z,6.15
2022-11-22T10:09:18.808Z,6.47
2022-11-22T10:12:01.015Z,6.55
2022-11-22T10:15:06.315Z,6.82
2022-11-22T10:17:51.164Z,6.45
2022-11-22T10:20:26.410Z,7.38
2022-11-22T10:25:31.594Z,6.80
2022-11-22T10:28:09.879Z,5.22
2022-11-22T10:30:40.834Z,5.57
2022-11-22T10:33:18.547Z,5.65
2022-11-22T10:36:04.003Z,5.22
2022-11-22T10:38:37.641Z,5.72
2022-11-22T10:41:31.859Z,6.10
2022-11-22T10:44:24.887Z,5.72
2022-11-22T10:47:09.558Z,6.10
2022-11-22T10:50:02.540Z,5.20
2022-11-22T10:52:45.677Z,6.20
2022-11-22T10:55:47.140Z,6.03
2022-11-22T10:58:19.950Z,5.85
2022-11-22T11:00:50.721Z,7.82
2022-11-22T11:03:33.535Z,8.63
2022-11-22T11:06:24.072Z,9.77
2022-11-22T11:09:48.009Z,10.18
2022-11-22T11:11:44.421Z,9.02
2022-11-22T11:14:30.553Z,9.07
2022-11-22T11:16:58.263Z,8.15
2022-11-22T11:19:25.798Z,9.88
2022-11-22T11:22:30.444Z,11.18
2022-11-22T11:25:40.786Z,10.45
2022-11-22T11:28:12.055Z,8.98
2022-11-22T11:30:51.626Z,9.38
2022-11-22T11:33:26.108Z,9.10
2022-11-22T11:35:56.825Z,8.90
2022-11-22T11:38:42.305Z,8.30
2022-11-22T11:41:40.286Z,9.32
2022-11-22T11:44:31.917Z,8.85
2022-11-22T11:46:59.345Z,7.68
2022-11-22T11:49:28.546Z,8.27
2022-11-22T11:51:57.110Z,7.60
2022-11-22T11:54:40.584Z,7.70
2022-11-22T11:57:36.755Z,7.75
2022-11-22T12:00:06.587Z,7.25
2022-11-22T12:02:38.907Z,7.47
2022-11-22T12:05:27.130Z,6.85
2022-11-22T12:07:53.994Z,7.43
2022-11-22T12:10:32.844Z,6.25
2022-11-22T12:13:20.415Z,6.50
2022-11-22T12:16:14.418Z,6.22
2022-11-22T12:19:26.069Z,5.40
2022-11-22T12:22:01.332Z,5.10
2022-11-22T12:27:40.740Z,5.63
2022-11-22T12:30:12.539Z,4.05
2022-11-22T12:32:48.039Z,4.47
2022-11-22T12:35:20.558Z,4.85
2022-11-22T12:38:20.886Z,5.65
2022-11-22T12:40:51.634Z,4.85
2022-11-22T12:43:23.364Z,5.03
2022-11-22T12:45:55.680Z,4.45
2022-11-22T12:48:29.162Z,5.70
2022-11-22T12:51:48.617Z,5.38
2022-11-22T12:54:18.516Z,4.80
2022-11-22T12:56:55.023Z,5.53
2022-11-22T12:59:33.158Z,5.53
2022-11-22T13:02:29.098Z,5.95
2022-11-22T13:05:06.440Z,5.22
2022-11-22T13:07:36.242Z,6.07
2022-11-22T13:10:12.314Z,4.82
2022-11-22T13:12:41.200Z,5.95
2022-11-22T13:15:12.937Z,4.70
2022-11-22T13:17:39.726Z,5.28
2022-11-22T13:20:19.714Z,5.43
2022-11-22T13:23:04.750Z,4.72
2022-11-22T13:25:57.594Z,5.13
2022-11-22T13:28:26.737Z,4.07
2022-11-22T13:31:15.950Z,4.93
2022-11-22T13:33:53.838Z,8.82
2022-11-22T13:36:29.580Z,5.10
2022-11-22T13:38:58.044Z,5.63
2022-11-22T13:41:26.776Z,5.20
2022-11-22T13:43:57.977Z,4.45
2022-11-22T13:46:55.101Z,4.95
2022-11-22T13:49:47.981Z,4.82
2022-11-22T13:54:48.111Z,5.38
2022-11-22T13:57:29.725Z,4.38
2022-11-22T14:00:31.780Z,4.32
2022-11-22T14:03:20.318Z,3.90
2022-11-22T14:05:49.798Z,4.50
2022-11-22T14:08:49.246Z,4.10
2022-11-22T14:11:40.869Z,4.30
2022-11-22T14:14:37.758Z,3.45
2022-11-22T14:17:20.448Z,3.90
2022-11-22T14:19:49.931Z,4.45
2022-11-22T14:22:20.619Z,5.05
2022-11-22T14:24:57.185Z,5.28
2022-11-22T14:27:43.696Z,4.45
2022-11-22T14:30:20.631Z,4.30
2022-11-22T14:33:04.526Z,4.07
2022-11-22T14:35:35.768Z,4.03
2022-11-22T14:38:28.955Z,4.80
2022-11-22T14:41:26.957Z,4.28
2022-11-22T14:44:15.175Z,4.45
2022-11-22T14:46:55.473Z,4.32
2022-11-22T14:49:25.095Z,4.97
2022-11-22T14:51:53.262Z,4.68
2022-11-22T14:54:23.579Z,5.30
2022-11-22T14:56:50.897Z,4.85
2022-11-22T14:59:43.835Z,6.00
2022-11-22T15:02:25.468Z,4.63
2022-11-22T15:09:11.958Z,4.75
2022-11-22T15:09:20.788Z,4.72
2022-11-22T15:11:46.775Z,5.38
2022-11-22T15:14:31.735Z,4.93
2022-11-22T15:59:41.787Z,7.53
2022-11-22T16:02:23.256Z,5.10
2022-11-22T16:06:09.913Z,5.05
2022-11-22T16:07:46.689Z,5.45
2022-11-22T16:10:21.860Z,5.13
2022-11-22T16:12:49.053Z,5.13
2022-11-22T16:15:24.490Z,4.68
2022-11-22T16:20:32.605Z,4.93
2022-11-22T16:23:14.699Z,7.82
2022-11-22T16:25:44.514Z,4.88
2022-11-22T16:28:29.961Z,5.38
2022-11-22T16:30:59.026Z,4.50
2022-11-22T16:33:25.800Z,4.10
2022-11-22T16:35:57.245Z,4.38
2022-11-22T16:38:24.782Z,4.15
2022-11-22T16:40:52.007Z,3.67
2022-11-22T16:43:20.569Z,3.40
2022-11-22T16:45:47.634Z,4.80
2022-11-22T16:48:34.816Z,4.03
2022-11-22T16:51:06.486Z,4.75
2022-11-22T16:53:42.516Z,4.30
2022-11-22T16:56:28.397Z,4.35
2022-11-22T16:58:56.544Z,4.00
2022-11-22T17:01:26.557Z,3.72
2022-11-22T17:03:55.542Z,8.07
2022-11-22T17:06:25.055Z,7.55
2022-11-22T17:08:54.938Z,4.60
2022-11-22T17:11:24.755Z,6.78
2022-11-22T17:13:51.826Z,6.05
2022-11-22T17:16:18.586Z,3.72
2022-11-22T17:18:46.637Z,4.32
2022-11-22T17:21:37.257Z,4.55
2022-11-22T17:24:07.046Z,3.75
2022-11-22T17:26:34.911Z,4.25
2022-11-22T17:29:01.863Z,5.05
2022-11-22T17:31:28.857Z,5.20
2022-11-22T17:33:58.415Z,5.00
2022-11-22T17:36:35.323Z,4.88
2022-11-22T17:39:05.075Z,4.43
2022-11-22T17:41:32.278Z,5.10
2022-11-22T17:43:59.382Z,4.30
2022-11-22T17:46:26.975Z,5.55
2022-11-22T17:48:55.136Z,3.67
2022-11-22T17:51:22.037Z,4.65
2022-11-22T17:53:49.015Z,4.90
2022-11-22T17:56:16.344Z,4.10
2022-11-22T17:58:43.070Z,4.70
2022-11-22T18:01:14.676Z,3.75
2022-11-22T18:03:42.130Z,4.15
2022-11-22T18:06:10.170Z,3.92
2022-11-22T18:08:36.964Z,4.07
2022-11-22T18:11:04.542Z,4.75
2022-11-22T18:13:33.630Z,4.25
2022-11-22T18:16:03.433Z,4.28
2022-11-22T18:18:55.827Z,4.22
2022-11-22T18:21:17.876Z,4.07
2022-11-22T18:23:45.364Z,3.42
2022-11-22T18:31:54.349Z,3.47
2022-11-22T18:34:24.359Z,4.55
2022-11-22T18:36:57.712Z,5.57
2022-11-22T18:39:29.502Z,5.00
2022-11-22T18:41:56.833Z,3.42
2022-11-22T18:44:23.567Z,3.25
2022-11-22T18:46:50.221Z,4.35
2022-11-22T18:49:16.946Z,5.25
2022-11-22T18:51:43.615Z,4.13
2022-11-22T18:54:10.676Z,4.30
2022-11-22T18:56:40.671Z,8.10
2022-11-22T18:59:09.814Z,3.92
2022-11-22T19:01:36.589Z,4.47
2022-11-22T19:04:03.492Z,3.97
2022-11-22T19:06:30.643Z,4.32
2022-11-22T19:08:57.851Z,4.78
2022-11-22T19:11:24.910Z,3.83
2022-11-22T19:13:51.731Z,4.05
2022-11-22T19:16:21.911Z,4.22
2022-11-22T19:18:49.874Z,5.38
2022-11-22T19:21:19.284Z,4.78
2022-11-22T19:23:46.093Z,4.50
2022-11-22T19:26:19.528Z,5.80
2022-11-22T19:28:50.148Z,19.77
2022-11-22T19:31:19.434Z,5.05
2022-11-22T19:36:15.430Z,4.28
2022-11-22T19:38:42.681Z,5.65
2022-11-22T19:41:17.327Z,6.07
2022-11-22T19:43:44.199Z,5.53
2022-11-22T19:46:11.307Z,6.05
2022-11-22T19:48:42.392Z,4.75
2022-11-22T19:51:14.228Z,4.88
2022-11-22T19:53:42.001Z,6.05
2022-11-22T19:56:16.815Z,5.05
2022-11-22T19:58:44.587Z,6.25
2022-11-22T20:01:14.522Z,5.32
2022-11-22T20:03:42.387Z,5.35
2022-11-22T20:06:11.175Z,6.75
2022-11-22T20:08:38.088Z,11.40
2022-11-22T20:11:11.054Z,4.95
2022-11-22T20:13:45.845Z,5.95
2022-11-22T20:16:22.183Z,4.75
2022-11-22T20:19:00.035Z,6.80
2022-11-22T20:21:28.429Z,7.43
2022-11-22T20:23:55.378Z,6.00
2022-11-22T20:26:22.916Z,5.40
2022-11-22T20:28:55.430Z,5.35
2022-11-22T20:31:23.384Z,5.18
2022-11-22T20:33:52.090Z,4.55
2022-11-22T20:36:26.941Z,5.05
2022-11-22T20:38:53.836Z,5.80
2022-11-22T20:41:23.109Z,4.63
2022-11-22T20:43:49.811Z,4.65
2022-11-22T20:46:18.509Z,5.15
2022-11-22T20:48:49.770Z,5.07
2022-11-22T20:51:18.950Z,5.13
2022-11-22T20:56:12.720Z,5.05
2022-11-22T20:58:39.891Z,5.20
2022-11-22T21:01:08.438Z,5.50
2022-11-22T21:03:35.243Z,4.93
2022-11-22T21:06:02.994Z,4.80
2022-11-22T21:08:29.742Z,4.95
2022-11-22T21:11:32.148Z,4.53
2022-11-22T21:13:58.904Z,4.32
2022-11-22T21:16:27.737Z,4.90
2022-11-22T21:18:55.305Z,5.35
2022-11-22T21:21:24.051Z,4.88
2022-11-22T21:23:56.606Z,4.60
2022-11-22T21:26:24.386Z,4.30
2022-11-22T21:28:51.251Z,4.78
2022-11-22T21:31:18.115Z,3.83
2022-11-22T21:33:45.764Z,4.70
2022-11-22T21:36:12.793Z,4.03
2022-11-22T21:38:39.573Z,5.40
2022-11-22T21:41:38.230Z,4.15
2022-11-22T21:43:56.303Z,3.75
2022-11-22T21:46:23.546Z,5.30
2022-11-22T21:48:50.560Z,4.30
2022-11-22T21:51:17.463Z,4.05
2022-11-22T21:53:44.144Z,4.10
2022-11-22T21:56:10.776Z,4.72
2022-11-22T21:58:37.435Z,3.58
2022-11-22T22:01:10.941Z,3.33
2022-11-22T22:03:40.481Z,3.40
2022-11-22T22:06:07.562Z,4.05
2022-11-22T22:08:34.320Z,4.50
2022-11-22T22:11:02.595Z,5.35
2022-11-22T22:13:30.820Z,4.82
2022-11-22T22:15:58.989Z,4.85
2022-11-22T22:18:32.619Z,4.25
2022-11-22T22:21:07.420Z,3.90
2022-11-22T22:23:35.072Z,3.83
2022-11-22T22:26:03.939Z,4.75
2022-11-22T22:28:32.118Z,3.70
2022-11-22T22:31:07.576Z,4.80
2022-11-22T22:33:38.193Z,3.55
2022-11-22T22:36:06.151Z,4.05
2022-11-22T22:38:33.501Z,3.90
2022-11-22T22:41:02.019Z,4.15
2022-11-22T22:43:33.746Z,3.42
2022-11-22T22:46:06.679Z,4.00
2022-11-22T22:48:34.440Z,3.60
2022-11-22T22:51:15.210Z,4.28
2022-11-22T22:53:42.549Z,4.57
2022-11-22T22:56:11.086Z,3.80
2022-11-22T22:58:38.011Z,4.45
2022-11-22T23:01:27.616Z,4.32
2022-11-22T23:03:59.799Z,4.57
2022-11-22T23:06:32.327Z,4.40
2022-11-22T23:08:59.740Z,4.10
2022-11-22T23:11:49.360Z,4.53
2022-11-22T23:14:18.976Z,3.88
2022-11-22T23:16:45.642Z,4.57
2022-11-22T23:19:12.778Z,4.25
2022-11-22T23:21:39.660Z,4.03
2022-11-22T23:24:07.137Z,3.80
2022-11-22T23:26:33.870Z,3.65
2022-11-22T23:29:00.714Z,3.72
2022-11-22T23:31:27.600Z,3.40
2022-11-22T23:33:54.507Z,3.63
2022-11-22T23:36:22.919Z,3.35
2022-11-22T23:38:49.636Z,4.13
2022-11-22T23:41:21.360Z,3.10
2022-11-22T23:43:52.259Z,3.75
2022-11-22T23:46:18.986Z,3.83
2022-11-22T23:48:46.842Z,3.47
2022-11-22T23:51:14.438Z,4.07
2022-11-22T23:53:41.456Z,4.28
2022-11-22T23:56:10.320Z,4.53
2022-11-22T23:58:37.575Z,4.22
